createdAt,value
2022-07-25T00:01:44.026Z,6.27
2022-07-25T00:04:12.456Z,5.53
2022-07-25T00:06:40.204Z,6.07
2022-07-25T00:09:07.460Z,5.87
2022-07-25T00:11:34.243Z,5.80
2022-07-25T00:14:00.881Z,5.47
2022-07-25T00:16:28.085Z,5.83
2022-07-25T00:18:55.155Z,6.07
2022-07-25T00:21:21.812Z,6.57
2022-07-25T00:23:48.418Z,6.00
2022-07-25T00:26:15.093Z,5.73
2022-07-25T00:28:41.795Z,5.83
2022-07-25T00:31:08.585Z,6.13
2022-07-25T00:33:35.507Z,6.37
2022-07-25T00:36:02.153Z,5.87
2022-07-25T00:38:28.742Z,5.53
2022-07-25T00:40:55.939Z,6.07
2022-07-25T00:43:23.023Z,6.03
2022-07-25T00:45:49.665Z,6.50
2022-07-25T00:48:16.295Z,5.90
2022-07-25T00:50:43.034Z,6.03
2022-07-25T00:53:09.660Z,5.77
2022-07-25T00:55:36.893Z,6.13
2022-07-25T00:58:03.579Z,6.10
2022-07-25T01:00:30.262Z,6.10
2022-07-25T01:02:57.613Z,6.43
2022-07-25T01:05:24.428Z,6.60
2022-07-25T01:07:51.950Z,6.50
2022-07-25T01:10:18.635Z,6.47
2022-07-25T01:12:53.359Z,6.37
2022-07-25T01:15:21.603Z,6.47
2022-07-25T01:17:48.451Z,6.23
2022-07-25T01:20:23.706Z,6.30
2022-07-25T01:22:51.356Z,5.70
2022-07-25T01:25:19.401Z,5.90
2022-07-25T01:27:51.246Z,5.97
2022-07-25T01:30:22.565Z,6.67
2022-07-25T01:32:49.222Z,6.47
2022-07-25T01:35:15.893Z,6.20
2022-07-25T01:37:45.881Z,6.43
2022-07-25T01:40:13.665Z,6.10
2022-07-25T01:42:40.415Z,5.70
2022-07-25T01:45:07.755Z,6.23
2022-07-25T01:47:34.363Z,5.73
2022-07-25T01:50:01.138Z,5.87
2022-07-25T01:52:27.777Z,5.90
2022-07-25T01:54:54.393Z,5.63
2022-07-25T01:57:21.397Z,5.27
2022-07-25T01:59:49.516Z,6.17
2022-07-25T02:02:16.111Z,5.60
2022-07-25T02:04:42.796Z,5.87
2022-07-25T02:07:09.397Z,5.77
2022-07-25T02:09:36.010Z,5.47
2022-07-25T02:12:02.631Z,5.77
2022-07-25T02:14:29.299Z,5.70
2022-07-25T02:16:56.080Z,6.10
2022-07-25T02:19:22.736Z,5.67
2022-07-25T02:21:49.374Z,6.73
2022-07-25T02:24:15.951Z,5.63
2022-07-25T02:26:42.556Z,6.03
2022-07-25T02:29:09.208Z,5.80
2022-07-25T02:31:35.785Z,5.60
2022-07-25T02:34:02.574Z,6.10
2022-07-25T02:36:29.574Z,5.43
2022-07-25T02:38:56.162Z,5.70
2022-07-25T02:41:22.742Z,5.57
2022-07-25T02:43:49.370Z,5.20
2022-07-25T02:46:15.996Z,5.73
2022-07-25T02:48:42.761Z,6.43
2022-07-25T02:51:09.383Z,5.63
2022-07-25T02:53:56.081Z,5.37
2022-07-25T02:56:22.481Z,5.50
2022-07-25T02:58:50.232Z,5.37
2022-07-25T03:01:16.939Z,4.80
2022-07-25T03:03:43.647Z,5.47
2022-07-25T03:06:10.352Z,5.63
2022-07-25T03:08:36.996Z,4.87
2022-07-25T03:11:03.748Z,5.83
2022-07-25T03:13:31.122Z,5.97
2022-07-25T03:15:57.687Z,5.93
2022-07-25T03:18:24.299Z,6.07
2022-07-25T03:20:50.878Z,5.67
2022-07-25T03:23:17.436Z,5.80
2022-07-25T03:25:44.002Z,5.83
2022-07-25T03:28:10.555Z,5.40
2022-07-25T03:30:37.306Z,5.70
2022-07-25T03:33:04.031Z,5.73
2022-07-25T03:35:30.632Z,6.37
2022-07-25T03:37:57.244Z,5.97
2022-07-25T03:40:23.875Z,6.20
2022-07-25T03:42:50.539Z,6.20
2022-07-25T03:45:17.847Z,5.80
2022-07-25T03:47:44.567Z,5.97
2022-07-25T03:50:11.713Z,6.07
2022-07-25T03:52:38.458Z,6.30
2022-07-25T03:55:10.050Z,5.83
2022-07-25T03:57:37.311Z,6.10
2022-07-25T04:00:06.153Z,5.73
2022-07-25T04:02:33.158Z,5.80
2022-07-25T04:04:59.904Z,6.20
2022-07-25T04:07:26.855Z,7.10
2022-07-25T04:09:53.442Z,6.10
2022-07-25T04:12:20.062Z,5.87
2022-07-25T04:14:46.694Z,6.00
2022-07-25T04:17:13.356Z,5.63
2022-07-25T04:19:40.074Z,5.60
2022-07-25T04:22:06.971Z,5.37
2022-07-25T04:24:33.537Z,5.43
2022-07-25T04:27:00.109Z,6.17
2022-07-25T04:29:26.695Z,5.90
2022-07-25T04:31:53.318Z,5.73
2022-07-25T04:34:20.363Z,4.93
2022-07-25T04:36:46.968Z,5.70
2022-07-25T04:39:13.575Z,6.40
2022-07-25T04:41:40.265Z,5.70
2022-07-25T04:44:08.356Z,5.70
2022-07-25T04:46:35.468Z,5.20
2022-07-25T04:49:02.174Z,5.27
2022-07-25T04:51:29.271Z,5.80
2022-07-25T04:53:55.840Z,5.93
2022-07-25T04:56:22.599Z,5.40
2022-07-25T04:58:49.458Z,5.70
2022-07-25T05:01:16.195Z,5.90
2022-07-25T05:03:49.876Z,5.70
2022-07-25T05:06:17.266Z,5.90
2022-07-25T05:08:43.822Z,5.17
2022-07-25T05:11:10.382Z,5.20
2022-07-25T05:13:36.961Z,5.30
2022-07-25T05:16:04.044Z,5.67
2022-07-25T05:18:30.936Z,5.10
2022-07-25T05:20:57.510Z,5.80
2022-07-25T05:23:24.120Z,6.20
2022-07-25T05:25:51.201Z,5.50
2022-07-25T05:28:17.950Z,5.83
2022-07-25T05:30:44.583Z,5.20
2022-07-25T05:33:11.165Z,5.13
2022-07-25T05:35:37.796Z,5.10
2022-07-25T05:38:04.666Z,5.20
2022-07-25T05:40:31.249Z,5.70
2022-07-25T05:43:02.582Z,5.30
2022-07-25T05:45:30.143Z,5.17
2022-07-25T05:47:56.778Z,6.23
2022-07-25T05:50:23.457Z,5.50
2022-07-25T05:52:50.077Z,5.47
2022-07-25T05:55:17.475Z,5.27
2022-07-25T05:57:44.218Z,5.80
2022-07-25T06:00:11.755Z,5.17
2022-07-25T06:02:38.627Z,5.50
2022-07-25T06:05:05.741Z,5.00
2022-07-25T06:07:32.341Z,5.10
2022-07-25T06:09:58.964Z,5.40
2022-07-25T06:12:25.558Z,5.43
2022-07-25T06:14:52.462Z,5.20
2022-07-25T06:17:19.134Z,5.40
2022-07-25T06:19:45.718Z,4.90
2022-07-25T06:22:13.716Z,5.73
2022-07-25T06:24:41.446Z,5.43
2022-07-25T06:27:08.700Z,5.90
2022-07-25T06:29:35.321Z,5.23
2022-07-25T06:32:02.179Z,5.40
2022-07-25T06:34:29.062Z,5.00
2022-07-25T06:36:57.447Z,4.90
2022-07-25T06:39:24.891Z,5.23
2022-07-25T06:41:51.812Z,5.10
2022-07-25T06:44:18.383Z,5.47
2022-07-25T06:46:45.098Z,4.70
2022-07-25T06:49:11.781Z,5.40
2022-07-25T06:51:38.386Z,5.20
2022-07-25T06:54:05.241Z,5.07
2022-07-25T06:56:32.928Z,5.23
2022-07-25T06:58:59.901Z,4.87
2022-07-25T07:01:26.812Z,4.77
2022-07-25T07:03:53.723Z,5.23
2022-07-25T07:06:20.465Z,5.70
2022-07-25T07:08:47.062Z,4.70
2022-07-25T07:11:15.244Z,5.70
2022-07-25T07:13:42.104Z,5.30
2022-07-25T07:16:09.200Z,5.43
2022-07-25T07:18:36.815Z,5.20
2022-07-25T07:21:04.615Z,5.80
2022-07-25T07:23:31.355Z,5.37
2022-07-25T07:25:59.923Z,5.00
2022-07-25T07:28:26.612Z,5.40
2022-07-25T07:33:39.922Z,5.03
2022-07-25T07:36:06.791Z,5.20
2022-07-25T07:38:33.362Z,5.53
2022-07-25T07:40:59.959Z,5.53
2022-07-25T07:43:29.935Z,5.30
2022-07-25T07:46:00.468Z,5.00
2022-07-25T07:48:28.605Z,5.57
2022-07-25T07:50:55.311Z,5.27
2022-07-25T07:53:21.967Z,5.00
2022-07-25T07:55:54.980Z,5.20
2022-07-25T07:58:21.737Z,5.27
2022-07-25T08:00:51.910Z,4.97
2022-07-25T08:03:20.964Z,5.60
2022-07-25T08:05:48.860Z,5.33
2022-07-25T08:08:16.494Z,5.30
2022-07-25T08:10:45.838Z,5.10
2022-07-25T08:13:15.204Z,5.83
2022-07-25T08:15:43.158Z,5.73
2022-07-25T08:18:16.780Z,5.40
2022-07-25T08:20:45.218Z,5.27
2022-07-25T08:23:12.164Z,5.27
2022-07-25T08:25:39.364Z,5.20
2022-07-25T08:28:06.470Z,5.23
2022-07-25T08:30:37.964Z,5.00
2022-07-25T08:33:07.534Z,5.10
2022-07-25T08:35:35.443Z,5.10
2022-07-25T08:38:04.792Z,5.00
2022-07-25T08:40:32.886Z,5.00
2022-07-25T08:43:00.202Z,5.33
2022-07-25T08:45:28.554Z,5.07
2022-07-25T08:47:55.964Z,5.03
2022-07-25T08:50:25.743Z,4.93
2022-07-25T08:53:04.637Z,5.13
2022-07-25T08:55:39.573Z,4.80
2022-07-25T08:58:06.199Z,4.90
2022-07-25T09:00:33.330Z,5.43
2022-07-25T09:03:01.760Z,4.90
2022-07-25T09:05:30.328Z,4.87
2022-07-25T09:07:58.283Z,4.90
2022-07-25T09:10:27.850Z,4.37
2022-07-25T09:13:02.871Z,4.43
2022-07-25T09:15:34.575Z,4.40
2022-07-25T09:18:13.151Z,4.43
2022-07-25T09:20:48.576Z,4.60
2022-07-25T09:23:32.505Z,4.53
2022-07-25T09:26:06.385Z,4.63
2022-07-25T09:28:49.759Z,4.80
2022-07-25T09:31:18.921Z,4.67
2022-07-25T09:33:56.343Z,4.50
2022-07-25T09:36:23.862Z,4.60
2022-07-25T09:38:57.778Z,4.20
2022-07-25T09:41:37.602Z,4.43
2022-07-25T09:44:14.783Z,4.43
2022-07-25T09:46:41.663Z,5.33
2022-07-25T09:49:09.714Z,4.67
2022-07-25T09:51:36.818Z,4.83
2022-07-25T09:54:04.444Z,4.87
2022-07-25T09:56:32.879Z,4.30
2022-07-25T09:59:01.410Z,4.77
2022-07-25T10:01:36.623Z,4.93
2022-07-25T10:04:47.048Z,4.57
2022-07-25T10:07:18.980Z,4.90
2022-07-25T10:09:50.367Z,4.53
2022-07-25T10:12:22.337Z,4.87
2022-07-25T10:15:04.295Z,5.00
2022-07-25T10:17:31.019Z,4.93
2022-07-25T10:19:58.986Z,4.90
2022-07-25T10:22:55.946Z,4.90
2022-07-25T10:25:23.715Z,5.00
2022-07-25T10:27:59.768Z,5.20
2022-07-25T10:30:36.044Z,5.20
2022-07-25T10:33:10.308Z,5.30
2022-07-25T10:35:37.552Z,4.83
2022-07-25T10:38:05.254Z,4.83
2022-07-25T10:40:37.326Z,5.07
2022-07-25T10:43:21.759Z,5.20
2022-07-25T10:45:54.149Z,5.30
2022-07-25T10:48:29.792Z,5.33
2022-07-25T10:51:02.792Z,5.20
2022-07-25T10:53:45.964Z,4.70
2022-07-25T10:56:22.390Z,4.70
2022-07-25T10:58:55.311Z,5.10
2022-07-25T11:01:22.138Z,4.73
2022-07-25T11:03:49.584Z,5.17
2022-07-25T11:06:17.298Z,5.03
2022-07-25T11:08:44.859Z,5.23
2022-07-25T11:11:12.210Z,5.00
2022-07-25T11:13:42.550Z,5.20
2022-07-25T11:16:09.862Z,4.73
2022-07-25T11:18:40.868Z,5.33
2022-07-25T11:21:09.294Z,5.30
2022-07-25T11:23:36.608Z,5.80
2022-07-25T11:26:13.499Z,5.10
2022-07-25T11:28:42.403Z,5.13
2022-07-25T11:31:09.544Z,5.33
2022-07-25T11:33:38.881Z,5.03
2022-07-25T11:36:06.544Z,5.50
2022-07-25T11:38:33.707Z,5.20
2022-07-25T11:41:01.231Z,4.93
2022-07-25T11:43:28.063Z,5.37
2022-07-25T11:46:09.356Z,5.23
2022-07-25T11:48:40.716Z,5.00
2022-07-25T11:51:19.020Z,5.10
2022-07-25T11:53:51.213Z,5.33
2022-07-25T11:56:41.907Z,5.23
2022-07-25T11:59:10.700Z,5.20
2022-07-25T12:01:42.540Z,5.70
2022-07-25T12:04:19.986Z,5.00
2022-07-25T12:06:50.906Z,4.70
2022-07-25T12:09:22.116Z,4.87
2022-07-25T12:11:49.571Z,4.57
2022-07-25T12:14:16.440Z,4.63
2022-07-25T12:16:43.208Z,5.27
2022-07-25T12:19:19.003Z,5.50
2022-07-25T12:21:46.517Z,5.83
2022-07-25T12:24:13.261Z,5.67
2022-07-25T12:26:39.993Z,5.10
2022-07-25T12:29:07.129Z,5.70
2022-07-25T12:31:34.016Z,5.87
2022-07-25T12:34:00.827Z,5.67
2022-07-25T12:36:27.564Z,5.10
2022-07-25T12:38:54.136Z,5.10
2022-07-25T12:41:22.797Z,5.17
2022-07-25T12:43:49.825Z,5.53
2022-07-25T12:46:16.836Z,5.53
2022-07-25T12:48:44.040Z,5.50
2022-07-25T12:51:10.940Z,4.93
2022-07-25T12:53:41.965Z,4.97
2022-07-25T12:56:09.459Z,5.37
2022-07-25T12:58:36.920Z,5.00
2022-07-25T13:01:05.658Z,6.40
2022-07-25T13:03:32.322Z,5.67
2022-07-25T13:05:58.930Z,5.30
2022-07-25T13:08:25.711Z,5.27
2022-07-25T13:10:52.350Z,5.47
2022-07-25T13:13:19.014Z,5.23
2022-07-25T13:15:46.432Z,5.87
2022-07-25T13:18:13.192Z,5.40
2022-07-25T13:20:39.809Z,5.77
2022-07-25T13:23:06.676Z,5.97
2022-07-25T13:25:34.273Z,5.43
2022-07-25T13:28:03.612Z,5.70
2022-07-25T13:30:37.580Z,6.10
2022-07-25T13:33:04.175Z,5.30
2022-07-25T13:35:38.115Z,5.63
2022-07-25T13:38:05.689Z,5.23
2022-07-25T13:40:32.540Z,6.00
2022-07-25T13:42:59.252Z,5.80
2022-07-25T13:45:25.941Z,5.37
2022-07-25T13:48:12.097Z,5.33
2022-07-25T13:50:39.455Z,5.33
2022-07-25T13:53:06.184Z,5.27
2022-07-25T13:55:32.915Z,5.20
2022-07-25T13:57:59.763Z,6.13
2022-07-25T14:00:26.365Z,6.03
2022-07-25T14:02:53.031Z,5.13
2022-07-25T14:05:19.689Z,6.03
2022-07-25T14:07:46.307Z,5.27
2022-07-25T14:10:13.141Z,5.47
2022-07-25T14:12:39.831Z,5.23
2022-07-25T14:15:07.054Z,5.30
2022-07-25T14:17:34.155Z,5.73
2022-07-25T14:20:00.848Z,5.47
2022-07-25T14:22:27.473Z,5.63
2022-07-25T14:24:54.035Z,5.80
2022-07-25T14:27:20.653Z,5.20
2022-07-25T14:29:47.360Z,5.33
2022-07-25T14:32:14.020Z,5.43
2022-07-25T14:34:40.673Z,5.90
2022-07-25T14:37:08.149Z,5.57
2022-07-25T14:39:35.197Z,5.70
2022-07-25T14:42:01.841Z,5.53
2022-07-25T14:44:28.910Z,4.90
2022-07-25T14:46:56.693Z,5.03
2022-07-25T14:49:23.957Z,5.47
2022-07-25T14:51:50.719Z,4.70
2022-07-25T14:54:18.313Z,5.43
2022-07-25T14:56:45.122Z,5.13
2022-07-25T14:59:12.123Z,5.60
2022-07-25T15:01:39.210Z,5.07
2022-07-25T15:04:06.349Z,4.77
2022-07-25T15:06:33.209Z,5.20
2022-07-25T15:08:59.808Z,5.50
2022-07-25T15:11:26.419Z,4.87
2022-07-25T15:13:53.141Z,4.70
2022-07-25T15:16:19.757Z,4.63
2022-07-25T15:19:13.479Z,4.80
2022-07-25T15:21:33.766Z,4.57
2022-07-25T15:24:00.369Z,4.77
2022-07-25T15:26:26.964Z,4.30
2022-07-25T15:28:53.774Z,4.17
2022-07-25T15:31:22.502Z,5.07
2022-07-25T15:33:49.151Z,4.03
2022-07-25T15:36:15.848Z,3.70
2022-07-25T15:38:44.508Z,4.13
2022-07-25T15:41:11.854Z,3.63
2022-07-25T15:43:39.158Z,3.93
2022-07-25T15:46:05.886Z,4.03
2022-07-25T15:48:33.627Z,3.70
2022-07-25T15:51:00.514Z,3.13
2022-07-25T15:53:28.375Z,3.77
2022-07-25T15:55:55.165Z,3.80
2022-07-25T15:58:21.871Z,3.40
2022-07-25T16:00:48.572Z,3.50
2022-07-25T16:03:15.457Z,3.27
2022-07-25T16:05:43.442Z,3.50
2022-07-25T16:08:10.033Z,3.20
2022-07-25T16:10:37.389Z,3.50
2022-07-25T16:13:04.698Z,3.87
2022-07-25T16:15:31.399Z,3.53
2022-07-25T16:18:02.644Z,3.40
2022-07-25T16:20:31.350Z,3.03
2022-07-25T16:22:59.109Z,3.50
2022-07-25T16:25:27.501Z,3.07
2022-07-25T16:27:54.318Z,2.60
2022-07-25T16:30:21.550Z,3.07
2022-07-25T16:32:48.438Z,2.53
2022-07-25T16:35:15.603Z,3.00
2022-07-25T16:37:42.737Z,2.67
2022-07-25T16:40:10.037Z,2.53
2022-07-25T16:42:36.854Z,2.47
2022-07-25T16:45:04.139Z,2.67
2022-07-25T16:47:30.801Z,2.77
2022-07-25T16:49:57.391Z,2.30
2022-07-25T16:52:24.026Z,2.17
2022-07-25T16:54:50.656Z,2.90
2022-07-25T16:57:17.321Z,2.50
2022-07-25T16:59:44.710Z,2.40
2022-07-25T17:02:11.443Z,2.73
2022-07-25T17:04:38.203Z,2.00
2022-07-25T17:07:04.887Z,1.87
2022-07-25T17:09:32.030Z,2.37
2022-07-25T17:11:58.607Z,2.27
2022-07-25T17:14:30.036Z,1.60
2022-07-25T17:16:57.135Z,1.90
2022-07-25T17:19:23.779Z,2.10
2022-07-25T17:21:50.357Z,2.20
2022-07-25T17:24:16.977Z,3.60
2022-07-25T17:26:43.533Z,2.30
2022-07-25T17:29:10.529Z,2.13
2022-07-25T17:31:37.404Z,2.20
2022-07-25T17:34:04.083Z,2.70
2022-07-25T17:36:30.643Z,2.97
2022-07-25T17:38:57.319Z,2.50
2022-07-25T17:41:23.912Z,2.80
2022-07-25T17:43:50.531Z,2.80
2022-07-25T17:46:17.303Z,3.10
2022-07-25T17:48:44.230Z,3.03
2022-07-25T17:51:10.945Z,3.30
2022-07-25T17:53:37.703Z,3.23
2022-07-25T17:56:04.706Z,3.47
2022-07-25T17:58:32.070Z,3.17
2022-07-25T18:01:01.398Z,3.50
2022-07-25T18:03:28.943Z,3.03
2022-07-25T18:05:56.082Z,3.27
2022-07-25T18:08:22.827Z,2.90
2022-07-25T18:10:50.264Z,3.10
2022-07-25T18:13:19.799Z,3.37
2022-07-25T18:15:46.917Z,2.90
2022-07-25T18:18:18.407Z,2.70
2022-07-25T18:20:47.239Z,3.50
2022-07-25T18:23:14.037Z,2.60
2022-07-25T18:25:40.874Z,2.80
2022-07-25T18:28:07.539Z,3.37
2022-07-25T18:30:34.146Z,3.03
2022-07-25T18:33:00.714Z,3.10
2022-07-25T18:35:27.290Z,2.67
2022-07-25T18:37:53.892Z,2.30
2022-07-25T18:40:20.801Z,2.60
2022-07-25T18:42:47.572Z,2.03
2022-07-25T18:45:14.211Z,2.37
2022-07-25T18:47:41.142Z,1.90
2022-07-25T18:50:08.220Z,2.00
2022-07-25T18:52:36.029Z,1.57
2022-07-25T18:55:04.449Z,1.77
2022-07-25T18:57:31.261Z,1.70
2022-07-25T19:00:02.587Z,1.67
2022-07-25T19:02:29.958Z,2.13
2022-07-25T19:04:56.663Z,2.00
2022-07-25T19:07:23.635Z,1.70
2022-07-25T19:09:50.412Z,1.83
2022-07-25T19:12:17.299Z,1.63
2022-07-25T19:14:44.155Z,1.90
2022-07-25T19:17:10.790Z,1.60
2022-07-25T19:19:37.506Z,2.03
2022-07-25T19:22:04.194Z,1.90
2022-07-25T19:24:31.372Z,2.07
2022-07-25T19:26:58.863Z,2.10
2022-07-25T19:29:26.717Z,1.67
2022-07-25T19:31:53.552Z,1.90
2022-07-25T19:34:20.160Z,1.70
2022-07-25T19:36:46.882Z,2.23
2022-07-25T19:39:15.430Z,1.63
2022-07-25T19:41:46.650Z,1.87
2022-07-25T19:44:14.008Z,1.73
2022-07-25T19:46:40.640Z,1.80
2022-07-25T19:49:07.821Z,1.70
2022-07-25T19:51:34.617Z,1.60
2022-07-25T19:54:03.460Z,1.90
2022-07-25T19:56:31.308Z,1.57
2022-07-25T19:58:58.129Z,2.03
2022-07-25T20:01:24.919Z,2.30
2022-07-25T20:03:51.582Z,1.60
2022-07-25T20:06:20.529Z,1.53
2022-07-25T20:08:48.151Z,2.13
2022-07-25T20:11:16.134Z,2.00
2022-07-25T20:13:42.798Z,2.40
2022-07-25T20:16:09.923Z,2.10
2022-07-25T20:18:36.656Z,2.07
2022-07-25T20:21:03.375Z,2.10
2022-07-25T20:23:30.649Z,2.33
2022-07-25T20:25:57.648Z,1.50
2022-07-25T20:28:24.287Z,2.33
2022-07-25T20:30:50.947Z,2.23
2022-07-25T20:33:18.109Z,2.00
2022-07-25T20:35:45.116Z,1.83
2022-07-25T20:38:11.693Z,2.00
2022-07-25T20:40:43.915Z,2.63
2022-07-25T20:43:15.152Z,2.07
2022-07-25T20:45:42.165Z,2.13
2022-07-25T20:48:08.877Z,1.70
2022-07-25T20:50:37.290Z,1.97
2022-07-25T20:53:04.890Z,2.10
2022-07-25T20:55:31.800Z,2.43
2022-07-25T20:57:58.866Z,2.27
2022-07-25T21:00:28.712Z,2.40
2022-07-25T21:02:55.454Z,1.70
2022-07-25T21:05:22.485Z,2.10
2022-07-25T21:07:49.271Z,2.17
2022-07-25T21:10:16.391Z,2.20
2022-07-25T21:12:45.125Z,1.73
2022-07-25T21:15:12.854Z,2.00
2022-07-25T21:17:39.600Z,2.00
2022-07-25T21:20:06.804Z,1.70
2022-07-25T21:22:34.089Z,2.10
2022-07-25T21:25:01.455Z,1.80
2022-07-25T21:27:28.329Z,2.40
2022-07-25T21:29:55.045Z,1.93
2022-07-25T21:32:22.024Z,2.07
2022-07-25T21:34:49.775Z,2.70
2022-07-25T21:37:16.563Z,2.30
2022-07-25T21:39:43.814Z,2.03
2022-07-25T21:42:10.949Z,2.00
2022-07-25T21:44:41.322Z,1.87
2022-07-25T21:47:08.950Z,2.07
2022-07-25T21:49:54.563Z,2.30
2022-07-25T21:52:30.106Z,2.00
2022-07-25T21:55:02.610Z,2.00
2022-07-25T21:57:29.294Z,2.10
2022-07-25T21:59:56.034Z,2.60
2022-07-25T22:02:23.413Z,2.20
2022-07-25T22:04:50.389Z,2.20
2022-07-25T22:07:17.618Z,2.00
2022-07-25T22:09:44.830Z,2.23
2022-07-25T22:12:11.590Z,1.73
2022-07-25T22:14:38.199Z,2.30
2022-07-25T22:17:05.590Z,2.33
2022-07-25T22:19:32.483Z,2.13
2022-07-25T22:21:59.122Z,2.50
2022-07-25T22:24:25.788Z,1.77
2022-07-25T22:26:52.503Z,2.30
2022-07-25T22:29:19.115Z,2.30
2022-07-25T22:31:45.799Z,2.73
2022-07-25T22:34:12.450Z,2.20
2022-07-25T22:36:39.135Z,2.10
2022-07-25T22:39:06.205Z,2.50
2022-07-25T22:41:33.013Z,1.90
2022-07-25T22:44:00.155Z,2.07
2022-07-25T22:46:28.797Z,1.70
2022-07-25T22:48:56.288Z,1.97
2022-07-25T22:51:23.614Z,1.87
2022-07-25T22:53:50.567Z,1.43
2022-07-25T22:56:17.404Z,1.13
2022-07-25T22:58:45.070Z,1.47
2022-07-25T23:01:16.358Z,1.60
2022-07-25T23:03:42.965Z,1.93
2022-07-25T23:06:09.929Z,1.63
2022-07-25T23:08:36.481Z,1.60
2022-07-25T23:11:03.587Z,1.40
2022-07-25T23:13:30.263Z,1.63
2022-07-25T23:15:56.946Z,1.80
2022-07-25T23:18:23.786Z,2.07
2022-07-25T23:20:50.379Z,1.20
2022-07-25T23:23:17.008Z,1.53
2022-07-25T23:25:43.626Z,1.50
2022-07-25T23:28:10.205Z,1.57
2022-07-25T23:30:40.450Z,1.57
2022-07-25T23:33:07.949Z,1.50
2022-07-25T23:35:35.258Z,1.37
2022-07-25T23:38:01.957Z,1.90
2022-07-25T23:40:28.534Z,1.27
2022-07-25T23:42:55.183Z,1.10
2022-07-25T23:45:24.980Z,0.90
2022-07-25T23:47:54.885Z,0.90
2022-07-25T23:50:22.587Z,1.57
2022-07-25T23:52:49.186Z,1.03
2022-07-25T23:55:15.876Z,1.13
2022-07-25T23:57:43.055Z,1.20
